Terminal Aerodrome Forecast
Issued by NWS

Home | Current Version | Previous Version | Text Only | Print | Product List | Glossary On
Versions: 1 2 3 4 5 6 7 8 9 10 11 12 13 14
000
FTUS46 KHNX 032320
TAFBFL
TAF
KBFL 032320Z 0400/0424 30012KT P6SM FEW250
     FM040400 35005KT P6SM SCT200
     FM041800 31012KT P6SM BKN200=

USA.gov is the U.S. government's official web portal to all federal, state and local government web resources and services.